Main page
Satellite images 10-day forecastsClimateMarine weather Cyclones Lightning AirportsFAQ Newsletter About
Weather : Europe Africa North America South America Asia Australia-Oceania Others
Languages Contact

Istanbul Sabiha Gökçen, Turkey

Sabiha Gökçen International Airport

latitude: 40-53-55N, longitude: 029-18-33E, elevation: 95 m


METAR: LTFJ 290650Z 04009KT 010V070 CAVOK 26/19 Q1021 NOSIG
TAF: LTFJ 290440Z 2906/3006 03008KT CAVOK TEMPO 2910/2914 03018KT SCT035

Time: 10:15 (07:15 UTC)

Current weather observation

The report was made 25 minutes ago, at 06:50 UTC
Wind 9 kt from the Northeast, varying between North and East/Northeast
Temperature 26°C
Humidity 65%
Pressure 1021 hPa
Visibility 10 km or more
no clouds below 1500 m and no cumulonimbus

Change units

Forecast

The report was made 2 hours and 35 minutes ago, at 04:40 UTC
Forecast valid from 29 at 06 UTC to 30 at 06 UTC
Wind 8 kt from the North/Northeast
Visibility 10 km or more
no clouds below 1500 m and no cumulonimbus
Temporary
from 29 at 10 UTC to 29 at 14 UTC
Wind 18 kt from the North/Northeast
Scattered clouds at a height of 3500 ft
The information on this site is subject to a disclaimer
Weather : Europe Africa North America South America Asia Australia-Oceania Others
Satellite images 10-day forecastsClimateMarine weather Cyclones Lightning AirportsFAQ Languages Contact Newsletter About